createdAt,value
2022-12-13T00:00:05.660Z,34.52
2022-12-13T00:02:32.623Z,34.60
2022-12-13T00:04:59.446Z,34.72
2022-12-13T00:07:26.301Z,35.08
2022-12-13T00:09:53.211Z,35.12
2022-12-13T00:12:20.132Z,34.84
2022-12-13T00:14:47.009Z,34.56
2022-12-13T00:17:13.981Z,34.73
2022-12-13T00:19:40.848Z,34.36
2022-12-13T00:22:09.639Z,34.43
2022-12-13T00:24:40.174Z,34.29
2022-12-13T00:27:09.932Z,34.53
2022-12-13T00:29:36.793Z,34.50
2022-12-13T00:32:03.739Z,34.12
2022-12-13T00:34:30.846Z,34.47
2022-12-13T00:36:59.609Z,34.48
2022-12-13T00:39:26.920Z,34.26
2022-12-13T00:41:53.837Z,34.28
2022-12-13T00:44:20.732Z,34.50
2022-12-13T00:46:47.607Z,34.07
2022-12-13T00:49:14.754Z,34.10
2022-12-13T00:51:41.659Z,34.07
2022-12-13T00:54:08.664Z,34.10
2022-12-13T00:56:37.350Z,34.51
2022-12-13T00:59:04.373Z,34.15
2022-12-13T01:01:32.578Z,34.26
2022-12-13T01:04:01.415Z,34.72
2022-12-13T01:06:29.968Z,34.77
2022-12-13T01:08:57.062Z,35.10
2022-12-13T01:11:24.458Z,34.93
2022-12-13T01:13:51.291Z,35.11
2022-12-13T01:16:18.950Z,34.94
2022-12-13T01:18:46.270Z,35.27
2022-12-13T01:21:15.652Z,35.14
2022-12-13T01:23:43.133Z,35.12
2022-12-13T01:26:11.918Z,35.42
2022-12-13T01:28:39.027Z,35.00
2022-12-13T01:31:08.057Z,35.54
2022-12-13T01:33:35.248Z,35.37
2022-12-13T01:36:03.111Z,35.35
2022-12-13T01:38:29.992Z,35.38
2022-12-13T01:41:00.106Z,35.09
2022-12-13T01:43:30.049Z,35.51
2022-12-13T01:45:56.914Z,35.29
2022-12-13T01:48:26.737Z,35.23
2022-12-13T01:50:55.165Z,35.51
2022-12-13T01:53:23.349Z,35.52
2022-12-13T01:55:53.751Z,35.10
2022-12-13T01:58:20.953Z,35.53
2022-12-13T02:00:48.795Z,35.61
2022-12-13T02:03:21.487Z,35.73
2022-12-13T02:05:54.038Z,35.63
2022-12-13T02:08:22.644Z,35.50
2022-12-13T02:10:49.489Z,35.41
2022-12-13T02:13:16.370Z,35.67
2022-12-13T02:15:43.701Z,36.07
2022-12-13T02:18:18.156Z,35.85
2022-12-13T02:20:53.065Z,36.10
2022-12-13T02:23:22.956Z,36.19
2022-12-13T02:25:52.836Z,36.12
2022-12-13T02:28:30.454Z,36.37
2022-12-13T02:31:07.318Z,36.17
2022-12-13T02:33:35.496Z,36.26
2022-12-13T02:36:02.636Z,36.45
2022-12-13T02:38:32.636Z,36.27
2022-12-13T02:41:02.554Z,36.62
2022-12-13T02:43:35.036Z,36.52
2022-12-13T02:46:03.499Z,36.75
2022-12-13T02:48:32.881Z,36.65
2022-12-13T02:51:01.170Z,36.83
2022-12-13T02:53:28.133Z,36.84
2022-12-13T02:55:55.068Z,36.80
2022-12-13T02:58:27.808Z,36.80
2022-12-13T03:00:57.736Z,37.01
2022-12-13T03:03:24.990Z,36.88
2022-12-13T03:06:03.411Z,36.75
2022-12-13T03:08:33.336Z,36.84
2022-12-13T03:11:05.052Z,36.85
2022-12-13T03:13:38.099Z,37.00
2022-12-13T03:16:09.124Z,36.93
2022-12-13T03:18:37.484Z,36.93
2022-12-13T03:21:05.571Z,37.36
2022-12-13T03:23:32.454Z,36.98
2022-12-13T03:26:01.878Z,37.14
2022-12-13T03:28:28.781Z,36.96
2022-12-13T03:30:55.755Z,37.17
2022-12-13T03:33:23.112Z,36.82
2022-12-13T03:35:50.031Z,37.12
2022-12-13T03:38:21.903Z,37.10
2022-12-13T03:40:51.330Z,37.11
2022-12-13T03:43:22.054Z,37.25
2022-12-13T03:45:50.055Z,37.28
2022-12-13T03:48:21.932Z,37.70
2022-12-13T03:50:50.797Z,37.59
2022-12-13T03:53:22.697Z,37.92
2022-12-13T03:56:01.336Z,37.96
2022-12-13T03:58:36.353Z,37.42
2022-12-13T04:01:06.000Z,36.57
2022-12-13T04:03:32.959Z,36.78
2022-12-13T04:05:59.830Z,36.76
2022-12-13T04:08:26.728Z,37.17
2022-12-13T04:10:53.640Z,37.39
2022-12-13T04:13:23.578Z,37.34
2022-12-13T04:15:50.563Z,37.20
2022-12-13T04:18:17.944Z,37.54
2022-12-13T04:20:45.137Z,37.53
2022-12-13T04:23:11.995Z,37.77
2022-12-13T04:25:39.159Z,37.55
2022-12-13T04:28:06.518Z,37.59
2022-12-13T04:30:33.556Z,37.54
2022-12-13T04:33:00.593Z,38.03
2022-12-13T04:35:27.514Z,37.96
2022-12-13T04:37:54.600Z,37.93
2022-12-13T04:40:22.096Z,37.80
2022-12-13T04:42:54.427Z,37.70
2022-12-13T04:45:22.153Z,37.77
2022-12-13T04:47:49.131Z,37.91
2022-12-13T04:50:15.974Z,37.75
2022-12-13T04:52:42.903Z,37.66
2022-12-13T04:55:09.900Z,37.72
2022-12-13T04:57:36.692Z,37.95
2022-12-13T05:00:04.551Z,38.10
2022-12-13T05:02:31.480Z,37.90
2022-12-13T05:04:58.402Z,38.03
2022-12-13T05:07:26.216Z,37.70
2022-12-13T05:09:53.447Z,38.13
2022-12-13T05:12:22.261Z,38.02
2022-12-13T05:14:50.309Z,38.22
2022-12-13T05:17:17.181Z,38.18
2022-12-13T05:19:44.066Z,38.24
2022-12-13T05:22:19.456Z,38.50
2022-12-13T05:24:47.428Z,38.27
2022-12-13T05:27:23.965Z,38.46
2022-12-13T05:30:02.388Z,38.67
2022-12-13T05:32:43.846Z,38.36
2022-12-13T05:35:14.230Z,38.46
2022-12-13T05:37:53.548Z,38.81
2022-12-13T05:40:22.025Z,38.70
2022-12-13T05:42:48.880Z,38.79
2022-12-13T05:45:17.637Z,38.74
2022-12-13T05:47:45.044Z,38.72
2022-12-13T05:50:12.596Z,38.81
2022-12-13T05:52:39.455Z,38.46
2022-12-13T05:55:06.429Z,38.64
2022-12-13T05:57:34.177Z,38.97
2022-12-13T06:00:01.337Z,38.62
2022-12-13T06:02:28.883Z,38.81
2022-12-13T06:04:55.796Z,39.06
2022-12-13T06:07:22.753Z,38.89
2022-12-13T06:09:49.633Z,38.86
2022-12-13T06:12:32.084Z,38.93
2022-12-13T06:15:01.144Z,39.04
2022-12-13T06:17:32.183Z,38.58
2022-12-13T06:19:59.281Z,38.99
2022-12-13T06:22:26.500Z,38.86
2022-12-13T06:24:53.603Z,38.89
2022-12-13T06:27:21.377Z,38.69
2022-12-13T06:29:48.178Z,38.74
2022-12-13T06:32:15.170Z,38.95
2022-12-13T06:34:42.073Z,38.83
2022-12-13T06:37:11.168Z,39.16
2022-12-13T06:39:37.993Z,39.17
2022-12-13T06:42:06.745Z,39.02
2022-12-13T06:44:34.273Z,39.11
2022-12-13T06:47:10.217Z,39.01
2022-12-13T06:49:39.787Z,39.36
2022-12-13T06:52:08.851Z,39.08
2022-12-13T06:54:35.707Z,38.99
2022-12-13T06:57:02.590Z,38.96
2022-12-13T06:59:29.518Z,39.26
2022-12-13T07:02:03.622Z,39.09
2022-12-13T07:04:31.433Z,39.09
2022-12-13T07:07:01.204Z,39.34
2022-12-13T07:09:31.272Z,38.95
2022-12-13T07:11:58.262Z,39.40
2022-12-13T07:14:25.116Z,39.18
2022-12-13T07:16:52.080Z,39.35
2022-12-13T07:19:24.031Z,39.65
2022-12-13T07:21:52.011Z,39.43
2022-12-13T07:24:19.324Z,39.72
2022-12-13T07:26:46.142Z,39.50
2022-12-13T07:29:12.993Z,39.19
2022-12-13T07:31:49.349Z,39.60
2022-12-13T07:34:16.135Z,39.21
2022-12-13T07:36:43.127Z,39.14
2022-12-13T07:39:09.938Z,39.03
2022-12-13T07:41:36.796Z,39.62
2022-12-13T07:44:03.657Z,39.54
2022-12-13T07:46:33.459Z,39.49
2022-12-13T07:49:03.059Z,39.82
2022-12-13T07:51:30.097Z,39.70
2022-12-13T07:53:57.906Z,39.26
2022-12-13T07:56:24.733Z,39.23
2022-12-13T07:58:51.617Z,36.81
2022-12-13T08:01:18.910Z,37.48
2022-12-13T08:03:48.059Z,37.33
2022-12-13T08:06:15.408Z,37.44
2022-12-13T08:08:42.399Z,37.58
2022-12-13T08:11:11.652Z,37.55
2022-12-13T08:13:39.385Z,37.65
2022-12-13T08:16:27.448Z,37.60
2022-12-13T08:19:02.659Z,37.58
2022-12-13T08:21:55.005Z,37.54
2022-12-13T08:27:02.062Z,37.41
2022-12-13T08:29:34.784Z,37.00
2022-12-13T08:32:04.823Z,37.21
2022-12-13T08:34:32.118Z,36.82
2022-12-13T08:37:01.611Z,36.84
2022-12-13T08:39:34.776Z,37.02
2022-12-13T08:42:16.833Z,37.04
2022-12-13T08:44:46.792Z,36.98
2022-12-13T08:47:24.419Z,37.00
2022-12-13T08:49:54.606Z,37.04
2022-12-13T08:52:22.078Z,37.11
2022-12-13T08:54:48.926Z,37.07
2022-12-13T08:57:16.494Z,37.14
2022-12-13T08:59:43.457Z,36.94
2022-12-13T09:02:14.228Z,36.94
2022-12-13T09:04:41.382Z,36.96
2022-12-13T09:07:08.414Z,36.49
2022-12-13T09:09:35.273Z,36.78
2022-12-13T09:12:10.910Z,36.48
2022-12-13T09:14:45.371Z,36.58
2022-12-13T09:17:14.724Z,36.54
2022-12-13T09:19:51.631Z,36.32
2022-12-13T09:22:33.887Z,36.06
2022-12-13T09:25:02.410Z,36.35
2022-12-13T09:27:31.179Z,36.06
2022-12-13T09:30:08.589Z,35.94
2022-12-13T09:32:38.417Z,35.94
2022-12-13T09:35:05.638Z,35.67
2022-12-13T09:37:32.737Z,35.54
2022-12-13T09:39:59.609Z,35.43
2022-12-13T09:42:45.884Z,35.79
2022-12-13T09:45:22.535Z,35.27
2022-12-13T09:47:51.167Z,35.56
2022-12-13T09:50:25.161Z,35.26
2022-12-13T09:52:52.927Z,35.16
2022-12-13T09:55:30.393Z,35.44
2022-12-13T09:57:58.386Z,35.10
2022-12-13T10:00:28.003Z,35.07
2022-12-13T10:02:58.380Z,35.24
2022-12-13T10:05:37.160Z,35.07
2022-12-13T10:08:11.919Z,34.99
2022-12-13T10:10:39.437Z,34.82
2022-12-13T10:13:12.140Z,34.98
2022-12-13T10:15:41.964Z,34.99
2022-12-13T10:18:11.544Z,34.67
2022-12-13T10:20:40.509Z,34.83
2022-12-13T10:23:33.154Z,34.72
2022-12-13T10:26:03.283Z,34.17
2022-12-13T10:28:32.939Z,34.31
2022-12-13T10:31:01.177Z,34.46
2022-12-13T10:33:33.317Z,33.86
2022-12-13T10:36:10.814Z,34.06
2022-12-13T10:38:39.237Z,34.05
2022-12-13T10:41:15.817Z,33.63
2022-12-13T10:43:43.002Z,33.64
2022-12-13T10:46:18.745Z,33.57
2022-12-13T10:48:52.758Z,33.29
2022-12-13T10:51:20.700Z,33.39
2022-12-13T10:53:51.657Z,33.49
2022-12-13T10:56:22.534Z,33.39
2022-12-13T10:58:51.968Z,33.61
2022-12-13T11:01:19.367Z,33.82
2022-12-13T11:03:57.472Z,33.71
2022-12-13T11:06:40.405Z,33.81
2022-12-13T11:09:22.954Z,33.69
2022-12-13T11:11:58.162Z,34.00
2022-12-13T11:14:31.722Z,33.96
2022-12-13T11:17:06.204Z,33.57
2022-12-13T11:19:37.169Z,33.75
2022-12-13T11:22:04.604Z,33.53
2022-12-13T11:24:34.256Z,33.61
2022-12-13T11:27:05.224Z,33.66
2022-12-13T11:29:42.793Z,33.74
2022-12-13T11:32:22.311Z,33.82
2022-12-13T11:34:50.366Z,33.63
2022-12-13T11:37:27.044Z,33.77
2022-12-13T11:40:01.431Z,33.51
2022-12-13T11:42:29.242Z,33.65
2022-12-13T11:44:59.005Z,33.63
2022-12-13T11:47:29.953Z,33.24
2022-12-13T11:49:57.338Z,33.47
2022-12-13T11:52:36.045Z,33.29
2022-12-13T11:55:07.457Z,33.41
2022-12-13T11:57:44.378Z,33.33
2022-12-13T12:00:13.257Z,33.10
2022-12-13T12:02:43.312Z,33.03
2022-12-13T12:05:21.544Z,32.78
2022-12-13T12:08:21.053Z,32.54
2022-12-13T12:10:49.054Z,32.48
2022-12-13T12:13:27.336Z,32.78
2022-12-13T12:15:55.149Z,32.26
2022-12-13T12:18:22.594Z,32.35
2022-12-13T12:21:04.197Z,32.12
2022-12-13T12:23:46.424Z,32.41
2022-12-13T12:26:18.398Z,32.41
2022-12-13T12:28:54.660Z,32.10
2022-12-13T12:31:30.922Z,32.01
2022-12-13T12:34:07.904Z,32.31
2022-12-13T12:36:45.848Z,31.96
2022-12-13T12:39:26.242Z,31.86
2022-12-13T12:42:08.179Z,31.95
2022-12-13T12:44:42.549Z,31.81
2022-12-13T12:47:46.338Z,31.97
2022-12-13T12:50:15.919Z,31.99
2022-12-13T12:52:51.729Z,31.91
2022-12-13T12:55:33.759Z,32.00
2022-12-13T12:58:01.759Z,32.02
2022-12-13T13:00:31.210Z,32.06
2022-12-13T13:03:05.243Z,31.86
2022-12-13T13:05:41.362Z,31.63
2022-12-13T13:08:12.417Z,31.98
2022-12-13T13:10:41.239Z,32.03
2022-12-13T13:13:32.853Z,32.17
2022-12-13T13:16:02.321Z,31.75
2022-12-13T13:18:38.664Z,32.15
2022-12-13T13:21:25.959Z,31.93
2022-12-13T13:24:02.885Z,31.89
2022-12-13T13:26:35.839Z,32.29
2022-12-13T13:29:12.844Z,32.40
2022-12-13T13:31:49.657Z,32.24
2022-12-13T13:34:27.650Z,32.06
2022-12-13T13:36:57.047Z,32.51
2022-12-13T13:39:27.565Z,32.53
2022-12-13T13:41:57.197Z,32.25
2022-12-13T13:44:28.937Z,32.26
2022-12-13T13:47:05.662Z,32.59
2022-12-13T13:49:32.673Z,32.51
2022-12-13T13:52:26.944Z,32.52
2022-12-13T13:55:03.666Z,33.01
2022-12-13T13:58:07.539Z,32.81
2022-12-13T14:00:22.217Z,32.95
2022-12-13T14:02:58.703Z,32.89
2022-12-13T14:05:34.704Z,32.85
2022-12-13T14:08:02.960Z,33.00
2022-12-13T14:10:37.573Z,33.09
2022-12-13T14:13:20.445Z,33.04
2022-12-13T14:15:49.817Z,33.26
2022-12-13T14:18:33.772Z,33.08
2022-12-13T14:21:13.118Z,33.33
2022-12-13T14:23:49.720Z,33.06
2022-12-13T14:26:22.699Z,33.04
2022-12-13T14:28:53.437Z,33.38
2022-12-13T14:31:23.691Z,33.20
2022-12-13T14:33:52.486Z,33.46
2022-12-13T14:36:26.177Z,33.55
2022-12-13T14:38:59.905Z,33.54
2022-12-13T14:41:26.797Z,33.42
2022-12-13T14:43:53.719Z,33.33
2022-12-13T14:46:20.597Z,33.72
2022-12-13T14:48:49.443Z,33.56
2022-12-13T14:51:25.826Z,33.49
2022-12-13T14:53:53.398Z,33.41
2022-12-13T14:56:28.312Z,33.46
2022-12-13T14:58:58.650Z,33.89
2022-12-13T15:01:29.280Z,33.94
2022-12-13T15:04:16.048Z,33.59
2022-12-13T15:06:48.300Z,33.84
2022-12-13T15:09:16.604Z,34.05
2022-12-13T15:11:50.980Z,34.22
2022-12-13T15:14:21.977Z,33.95
2022-12-13T15:16:50.475Z,34.24
2022-12-13T15:19:29.502Z,34.20
2022-12-13T15:22:02.205Z,34.34
2022-12-13T15:24:32.445Z,33.79
2022-12-13T15:27:00.600Z,34.17
2022-12-13T15:29:30.033Z,34.16
2022-12-13T15:31:57.760Z,34.06
2022-12-13T15:34:29.537Z,34.27
2022-12-13T15:37:01.875Z,34.26
2022-12-13T15:39:29.498Z,34.28
2022-12-13T15:41:57.396Z,34.34
2022-12-13T15:44:27.600Z,34.26
2022-12-13T15:46:59.161Z,34.61
2022-12-13T15:49:35.878Z,34.29
2022-12-13T15:52:03.023Z,34.44
2022-12-13T15:54:30.476Z,34.21
2022-12-13T15:57:00.964Z,34.23
2022-12-13T15:59:29.655Z,34.14
2022-12-13T16:01:58.651Z,34.19
2022-12-13T16:04:28.795Z,34.22
2022-12-13T16:06:56.077Z,34.21
2022-12-13T16:09:24.778Z,34.36
2022-12-13T16:11:53.751Z,34.03
2022-12-13T16:14:31.787Z,34.41
2022-12-13T16:17:00.910Z,34.39
2022-12-13T16:19:35.313Z,34.21
2022-12-13T16:22:02.511Z,34.47
2022-12-13T16:24:36.219Z,34.03
2022-12-13T16:27:08.348Z,34.14
2022-12-13T16:29:37.339Z,34.15
2022-12-13T16:32:08.312Z,34.09
2022-12-13T16:34:36.222Z,33.91
2022-12-13T16:37:03.378Z,33.82
2022-12-13T16:39:35.818Z,33.88
2022-12-13T16:42:03.559Z,33.73
2022-12-13T16:44:35.373Z,33.69
2022-12-13T16:47:14.646Z,33.86
2022-12-13T16:49:47.404Z,33.74
2022-12-13T16:52:14.437Z,33.47
2022-12-13T16:54:41.354Z,33.56
2022-12-13T16:57:09.356Z,33.42
2022-12-13T16:59:36.484Z,33.57
2022-12-13T17:02:03.554Z,33.32
2022-12-13T17:04:30.438Z,33.47
2022-12-13T17:06:57.358Z,33.26
2022-12-13T17:09:25.669Z,33.62
2022-12-13T17:11:52.783Z,33.40
2022-12-13T17:14:19.676Z,33.55
2022-12-13T17:16:46.661Z,33.49
2022-12-13T17:19:15.925Z,33.51
2022-12-13T17:21:42.902Z,33.34
2022-12-13T17:24:10.590Z,33.50
2022-12-13T17:26:37.604Z,33.27
2022-12-13T17:29:05.346Z,33.27
2022-12-13T17:31:36.139Z,33.59
2022-12-13T17:34:04.008Z,33.58
2022-12-13T17:36:32.117Z,34.98
2022-12-13T17:38:59.330Z,35.57
2022-12-13T17:41:26.623Z,34.69
2022-12-13T17:43:53.564Z,34.47
2022-12-13T17:46:20.534Z,34.55
2022-12-13T17:48:47.593Z,34.45
2022-12-13T17:51:15.216Z,34.29
2022-12-13T17:53:42.937Z,34.49
2022-12-13T17:56:12.370Z,34.42
2022-12-13T17:58:40.395Z,34.43
2022-12-13T18:01:16.861Z,34.03
2022-12-13T18:03:43.998Z,34.33
2022-12-13T18:06:11.375Z,34.00
2022-12-13T18:08:39.330Z,34.31
2022-12-13T18:13:55.442Z,34.27
2022-12-13T18:16:23.917Z,34.04
2022-12-13T18:18:55.524Z,34.25
2022-12-13T18:21:22.968Z,34.06
2022-12-13T18:23:54.972Z,34.21
2022-12-13T18:26:23.779Z,33.94
2022-12-13T18:28:50.736Z,33.67
2022-12-13T18:31:19.045Z,33.75
2022-12-13T18:33:47.859Z,33.78
2022-12-13T18:36:15.159Z,33.93
2022-12-13T18:38:43.433Z,34.07
2022-12-13T18:41:12.853Z,34.01
2022-12-13T18:46:11.318Z,33.99
2022-12-13T18:48:38.349Z,33.70
2022-12-13T18:51:07.977Z,34.11
2022-12-13T18:53:35.237Z,33.90
2022-12-13T18:56:02.901Z,34.01
2022-12-13T18:58:30.007Z,33.78
2022-12-13T19:00:57.718Z,33.66
2022-12-13T19:03:26.337Z,33.85
2022-12-13T19:05:56.225Z,33.61
2022-12-13T19:08:26.654Z,33.76
2022-12-13T19:10:54.440Z,33.95
2022-12-13T19:13:23.341Z,33.53
2022-12-13T19:15:51.402Z,33.65
2022-12-13T19:18:18.443Z,33.55
2022-12-13T19:20:47.466Z,33.74
2022-12-13T19:23:14.457Z,33.40
2022-12-13T19:25:41.565Z,33.81
2022-12-13T19:28:10.105Z,33.41
2022-12-13T19:30:37.024Z,33.66
2022-12-13T19:33:04.425Z,33.36
2022-12-13T19:35:31.324Z,33.69
2022-12-13T19:37:58.364Z,33.38
2022-12-13T19:40:25.536Z,33.64
2022-12-13T19:42:52.417Z,33.43
2022-12-13T19:45:19.509Z,33.43
2022-12-13T19:47:48.555Z,33.54
2022-12-13T19:50:17.234Z,33.65
2022-12-13T19:52:44.406Z,33.63
2022-12-13T19:55:11.339Z,33.20
2022-12-13T19:57:38.253Z,33.17
2022-12-13T20:00:06.245Z,33.17
2022-12-13T20:02:33.224Z,33.27
2022-12-13T20:05:00.320Z,33.42
2022-12-13T20:07:27.176Z,33.08
2022-12-13T20:09:54.127Z,33.21
2022-12-13T20:12:21.197Z,33.37
2022-12-13T20:14:48.158Z,33.15
2022-12-13T20:17:15.313Z,32.82
2022-12-13T20:19:42.221Z,32.81
2022-12-13T20:22:09.260Z,33.13
2022-12-13T20:24:36.206Z,32.97
2022-12-13T20:27:03.157Z,32.74
2022-12-13T20:29:30.101Z,32.97
2022-12-13T20:31:57.028Z,32.59
2022-12-13T20:34:23.990Z,32.53
2022-12-13T20:36:50.920Z,32.83
2022-12-13T20:39:17.909Z,32.63
2022-12-13T20:41:44.881Z,32.91
2022-12-13T20:44:13.466Z,33.03
2022-12-13T20:46:40.544Z,32.72
2022-12-13T20:49:09.034Z,32.77
2022-12-13T20:51:36.959Z,33.13
2022-12-13T20:54:05.020Z,32.90
2022-12-13T20:56:36.525Z,33.09
2022-12-13T20:59:05.059Z,33.22
2022-12-13T21:01:33.131Z,33.20
2022-12-13T21:04:01.258Z,32.76
2022-12-13T21:06:30.035Z,32.95
2022-12-13T21:09:02.993Z,32.89
2022-12-13T21:11:32.337Z,33.03
2022-12-13T21:14:05.390Z,33.23
2022-12-13T21:16:38.040Z,33.21
2022-12-13T21:19:05.726Z,32.94
2022-12-13T21:21:34.484Z,32.84
2022-12-13T21:24:03.460Z,33.02
2022-12-13T21:26:35.406Z,33.11
2022-12-13T21:29:04.300Z,33.07
2022-12-13T21:31:39.432Z,32.92
2022-12-13T21:34:07.113Z,33.13
2022-12-13T21:36:35.259Z,33.14
2022-12-13T21:39:03.006Z,33.08
2022-12-13T21:41:30.378Z,33.12
2022-12-13T21:43:57.256Z,32.90
2022-12-13T21:46:35.753Z,32.76
2022-12-13T21:49:08.586Z,32.66
2022-12-13T21:51:35.619Z,32.61
2022-12-13T21:54:02.658Z,32.76
2022-12-13T21:56:40.499Z,32.79
2022-12-13T21:59:22.024Z,32.61
2022-12-13T22:02:08.689Z,32.92
2022-12-13T22:04:36.916Z,32.55
2022-12-13T22:07:04.798Z,32.69
2022-12-13T22:09:31.790Z,32.43
2022-12-13T22:11:58.870Z,32.75
2022-12-13T22:14:25.823Z,32.38
2022-12-13T22:16:52.836Z,32.32
2022-12-13T22:19:20.104Z,32.30
2022-12-13T22:21:49.667Z,32.05
2022-12-13T22:24:17.659Z,32.55
2022-12-13T22:26:44.638Z,32.71
2022-12-13T22:29:12.599Z,32.43
2022-12-13T22:31:40.439Z,32.95
2022-12-13T22:34:07.641Z,32.64
2022-12-13T22:36:34.638Z,32.67
2022-12-13T22:39:02.035Z,32.81
2022-12-13T22:41:28.756Z,32.81
2022-12-13T22:43:55.658Z,32.53
2022-12-13T22:46:22.731Z,32.46
2022-12-13T22:48:52.144Z,32.64
2022-12-13T22:51:19.619Z,32.24
2022-12-13T22:53:47.318Z,32.38
2022-12-13T22:56:17.482Z,32.62
2022-12-13T22:58:45.323Z,32.62
2022-12-13T23:01:12.599Z,32.54
2022-12-13T23:03:40.243Z,33.13
2022-12-13T23:06:08.565Z,32.87
2022-12-13T23:08:40.206Z,33.27
2022-12-13T23:11:20.592Z,33.26
2022-12-13T23:13:51.810Z,33.31
2022-12-13T23:16:19.628Z,33.13
2022-12-13T23:18:47.165Z,33.26
2022-12-13T23:21:14.577Z,33.50
2022-12-13T23:23:41.397Z,33.54
2022-12-13T23:26:09.322Z,33.61
2022-12-13T23:28:36.485Z,33.45
2022-12-13T23:31:03.325Z,33.79
2022-12-13T23:33:30.368Z,33.60
2022-12-13T23:35:57.945Z,33.42
2022-12-13T23:38:25.140Z,33.81
2022-12-13T23:40:52.265Z,33.91
2022-12-13T23:43:19.086Z,33.76
2022-12-13T23:45:45.927Z,34.07
2022-12-13T23:48:12.839Z,33.75
2022-12-13T23:50:39.958Z,34.20
2022-12-13T23:53:06.776Z,33.94
2022-12-13T23:55:36.281Z,33.72
2022-12-13T23:58:03.166Z,33.72
